Time;durP1;ratioP1;P1;durP2;ratioP2;P2;SDS_P1;SDS_P2;PMS_P1;PMS_P2;Temp;Humidity;BMP_temperature;BMP_pressure;BME280_temperature;BME280_humidity;BME280_pressure;Samples;Min_cycle;Max_cycle;Signal;HPM_P1;HPM_P2
2023/10/06 00:02:56;;;;;;;40.47;25.83;;;12.60;99.90;;;12.61;100.00;101015.34;4925434;29;20755;-87
2023/10/06 00:05:23;;;;;;;42.88;25.67;;;12.60;99.90;;;12.61;100.00;101007.97;4922657;29;20115;-87
2023/10/06 00:07:50;;;;;;;44.83;25.27;;;12.50;99.90;;;12.54;100.00;101000.88;4921203;29;20076;-87
2023/10/06 00:10:27;;;;;;;40.85;24.38;;;12.50;99.90;;;12.50;100.00;101008.66;4934215;29;20040;-86
2023/10/06 00:12:59;;;;;;;39.63;24.67;;;12.50;99.90;;;12.55;100.00;101013.50;4924279;29;20163;-87
2023/10/06 00:15:38;;;;;;;38.95;24.10;;;12.40;99.90;;;12.54;100.00;101030.97;4920138;29;20046;-87
2023/10/06 00:18:16;;;;;;;42.42;24.52;;;12.40;99.90;;;12.49;100.00;101027.00;4920711;29;20040;-88
2023/10/06 00:20:49;;;;;;;37.28;24.42;;;12.40;99.90;;;12.51;100.00;101027.63;4918714;29;20040;-87
2023/10/06 00:23:22;;;;;;;36.33;23.13;;;12.40;99.90;;;12.49;100.00;101021.53;4930232;29;20039;-87
2023/10/06 00:25:57;;;;;;;37.08;22.13;;;12.40;99.90;;;12.46;100.00;101032.06;4931526;29;20096;-88
2023/10/06 00:28:26;;;;;;;38.20;23.45;;;12.30;99.90;;;12.39;100.00;101029.34;4919815;29;20040;-87
2023/10/06 00:30:57;;;;;;;34.63;21.23;;;12.30;99.90;;;12.29;100.00;101038.03;4943912;29;20036;-88
2023/10/06 00:33:38;;;;;;;35.15;22.25;;;12.20;99.90;;;12.32;100.00;101048.53;4919802;29;20083;-87
2023/10/06 00:36:12;;;;;;;33.05;21.63;;;12.20;99.90;;;12.23;100.00;101038.91;4922287;29;20457;-88
2023/10/06 00:38:50;;;;;;;35.00;23.02;;;12.20;99.90;;;12.22;100.00;101051.78;4924704;29;20400;-87
2023/10/06 00:41:18;;;;;;;33.35;23.02;;;12.20;99.90;;;12.18;100.00;101044.22;4924989;29;20099;-86
2023/10/06 00:43:45;;;;;;;35.30;21.75;;;12.10;99.90;;;12.12;100.00;101034.16;4918692;29;20048;-86
2023/10/06 00:46:12;;;;;;;33.00;20.23;;;12.00;99.90;;;12.16;100.00;101038.94;4923951;29;20092;-87
2023/10/06 00:48:44;;;;;;;31.67;20.73;;;12.00;99.90;;;12.12;100.00;101024.03;4919382;29;20044;-87
2023/10/06 00:51:19;;;;;;;35.15;20.63;;;12.10;99.90;;;12.11;100.00;101021.53;4931247;29;20043;-87
2023/10/06 00:53:51;;;;;;;39.45;21.27;;;12.00;99.90;;;12.08;100.00;101012.72;4932429;29;20032;-83
2023/10/06 00:56:23;;;;;;;38.67;21.38;;;12.10;99.90;;;12.04;100.00;100999.69;4926790;29;20036;-87
2023/10/06 00:58:50;;;;;;;34.95;20.13;;;12.00;99.90;;;12.04;100.00;100999.69;4933629;29;20044;-88
2023/10/06 01:01:19;;;;;;;34.60;20.03;;;12.10;99.90;;;11.98;100.00;101006.00;4921695;29;20051;-86
2023/10/06 01:03:54;;;;;;;33.63;19.77;;;12.00;99.90;;;12.00;100.00;100995.69;4929352;29;20514;-86
2023/10/06 01:06:23;;;;;;;31.17;18.55;;;12.00;99.90;;;12.04;100.00;100995.03;4930979;29;20400;-86
2023/10/06 01:09:05;;;;;;;34.85;17.92;;;12.00;99.90;;;12.12;100.00;100993.13;4934588;29;20044;-87
2023/10/06 01:11:50;;;;;;;28.17;17.13;;;12.10;99.90;;;12.12;100.00;101006.81;4946546;29;20103;-83
2023/10/06 01:14:27;;;;;;;29.73;16.98;;;12.10;99.90;;;12.17;100.00;101026.13;4938382;29;20044;-85
2023/10/06 01:17:04;;;;;;;29.48;18.27;;;12.10;99.90;;;12.07;100.00;101029.31;4937407;29;20032;-84
2023/10/06 01:19:33;;;;;;;30.33;17.27;;;12.00;99.90;;;12.01;100.00;101035.66;4937072;29;20066;-85
2023/10/06 01:22:20;;;;;;;29.70;16.40;;;12.00;99.90;;;11.94;100.00;101041.97;4937328;29;20039;-84
2023/10/06 01:24:46;;;;;;;27.55;16.23;;;11.90;99.90;;;11.95;100.00;101048.28;4942237;29;20059;-85
2023/10/06 01:27:12;;;;;;;26.48;15.75;;;11.90;99.90;;;11.92;100.00;101044.06;4950497;29;20051;-84
2023/10/06 01:29:38;;;;;;;26.75;14.88;;;11.90;99.90;;;11.94;100.00;101035.66;4948032;28;20055;-84
2023/10/06 01:32:05;;;;;;;28.25;14.98;;;11.90;99.90;;;11.91;100.00;101028.72;4938342;29;20036;-87
2023/10/06 01:34:38;;;;;;;24.30;15.30;;;11.90;99.90;;;11.93;100.00;101037.56;4939676;29;20043;-85
2023/10/06 01:37:11;;;;;;;25.92;13.93;;;12.00;99.90;;;11.88;100.00;101033.78;4942125;29;20047;-84
2023/10/06 01:39:39;;;;;;;26.30;14.18;;;11.90;99.90;;;11.92;100.00;101040.50;4942486;28;20543;-86
2023/10/06 01:42:09;;;;;;;26.08;14.93;;;11.90;99.90;;;11.98;100.00;101042.38;4942646;28;20043;-86
2023/10/06 01:44:35;;;;;;;26.25;14.50;;;11.90;99.90;;;11.99;100.00;101054.16;4937630;29;20047;-85
2023/10/06 01:47:04;;;;;;;24.75;13.40;;;12.00;99.90;;;11.96;100.00;101060.06;4926989;29;20043;-85
2023/10/06 01:49:33;;;;;;;22.17;13.73;;;12.00;99.90;;;11.99;100.00;101071.38;4940742;29;20052;-86
2023/10/06 01:52:02;;;;;;;21.58;13.98;;;11.90;99.90;;;12.01;100.00;101069.31;4936674;29;20067;-86
2023/10/06 01:54:34;;;;;;;26.75;13.60;;;12.00;99.90;;;11.92;100.00;101081.50;4948020;29;20116;-85
2023/10/06 01:57:06;;;;;;;30.63;13.20;;;12.00;99.90;;;11.98;100.00;101102.53;4939829;29;20072;-85
2023/10/06 01:59:33;;;;;;;22.98;12.85;;;11.90;99.90;;;11.93;100.00;101105.91;4924752;29;20027;-85
2023/10/06 02:02:02;;;;;;;27.45;13.48;;;11.90;99.90;;;11.88;100.00;101119.38;4938532;29;20064;-85
2023/10/06 02:04:39;;;;;;;22.17;13.07;;;11.90;99.90;;;11.85;100.00;101124.44;4932202;29;20074;-86
2023/10/06 02:07:09;;;;;;;22.60;13.38;;;11.80;99.90;;;11.80;100.00;101127.81;4941953;29;20039;-85
2023/10/06 02:09:36;;;;;;;20.58;13.15;;;11.80;99.90;;;11.73;100.00;101124.25;4940647;29;20036;-84
2023/10/06 02:12:03;;;;;;;25.45;12.85;;;11.70;99.90;;;11.68;100.00;101126.78;4941099;29;20048;-85
2023/10/06 02:14:29;;;;;;;26.88;13.75;;;11.70;99.90;;;11.69;100.00;101123.00;4931797;29;20456;-85
2023/10/06 02:16:55;;;;;;;21.30;13.18;;;11.70;99.90;;;11.69;100.00;101133.94;4959684;29;20043;-84
2023/10/06 02:19:28;;;;;;;25.90;13.45;;;11.70;99.90;;;11.71;100.00;101126.38;4943149;29;20056;-84
2023/10/06 02:21:54;;;;;;;22.33;13.45;;;11.70;99.90;;;11.68;100.00;101138.56;4938531;29;20028;-86
2023/10/06 02:24:20;;;;;;;27.92;12.90;;;11.70;99.90;;;11.64;100.00;101145.50;4932134;29;20091;-85
2023/10/06 02:27:02;;;;;;;23.77;12.30;;;11.60;99.90;;;11.61;100.00;101154.94;4940647;29;20050;-85
2023/10/06 02:29:29;;;;;;;22.48;11.60;;;11.70;99.90;;;11.60;100.00;101146.97;4937493;29;20107;-86
2023/10/06 02:32:06;;;;;;;27.77;12.45;;;11.70;99.90;;;11.61;100.00;101151.38;4926202;29;20210;-86
2023/10/06 02:34:35;;;;;;;24.98;12.40;;;11.60;99.90;;;11.61;100.00;101154.94;4943027;29;20044;-86
2023/10/06 02:37:04;;;;;;;23.30;11.55;;;11.60;99.90;;;11.60;100.00;101153.25;4934796;29;20032;-84
2023/10/06 02:39:34;;;;;;;21.92;11.93;;;11.60;99.90;;;11.61;100.00;101138.56;4944778;29;20138;-85
2023/10/06 02:42:09;;;;;;;20.58;12.07;;;11.60;99.90;;;11.55;100.00;101155.78;4936333;29;20040;-84
2023/10/06 02:44:40;;;;;;;22.52;12.02;;;11.60;99.90;;;11.50;100.00;101145.50;4940584;29;20052;-86
2023/10/06 02:47:09;;;;;;;22.85;11.95;;;11.60;99.90;;;11.51;100.00;101160.84;4937682;29;20059;-85
2023/10/06 02:49:37;;;;;;;22.45;12.02;;;11.60;99.90;;;11.48;100.00;101164.00;4938789;29;20091;-84
2023/10/06 02:52:16;;;;;;;27.92;12.18;;;11.50;99.90;;;11.44;100.00;101170.94;4933140;29;20040;-85
2023/10/06 02:54:47;;;;;;;;;;;11.50;99.90;;;11.48;100.00;101176.81;4939035;29;20068;-85
2023/10/06 02:57:13;;;;;;;28.65;12.13;;;11.50;99.90;;;11.43;100.00;101160.22;4937487;29;20016;-85
2023/10/06 02:59:39;;;;;;;22.67;11.40;;;11.50;99.90;;;11.37;100.00;101165.47;4928477;29;20107;-85
2023/10/06 03:02:15;;;;;;;21.50;12.13;;;11.50;99.90;;;11.41;100.00;101181.47;4924830;29;20517;-81
2023/10/06 03:04:48;;;;;;;24.85;12.43;;;11.50;99.90;;;11.42;100.00;101189.41;4922326;29;20473;-84
2023/10/06 03:07:15;;;;;;;21.80;11.60;;;11.40;99.90;;;11.42;100.00;101178.50;4924155;29;20064;-86
2023/10/06 03:09:47;;;;;;;19.93;11.17;;;11.40;99.90;;;11.37;100.00;101179.13;4918989;29;20556;-85
2023/10/06 03:15:00;;;;;;;29.58;11.85;;;11.40;99.90;;;11.36;100.00;101180.16;4925970;29;20040;-85
2023/10/06 03:17:26;;;;;;;22.63;11.52;;;11.40;99.90;;;11.35;100.00;101183.94;4922222;29;20484;-85
2023/10/06 03:20:12;;;;;;;25.15;11.68;;;11.40;99.90;;;11.33;100.00;101188.78;4932895;29;20031;-85
2023/10/06 03:22:40;;;;;;;24.42;10.88;;;11.40;99.90;;;11.28;100.00;101179.56;4930720;29;20036;-85
2023/10/06 03:25:17;;;;;;;25.05;11.30;;;11.30;99.90;;;11.30;100.00;101180.19;4918473;29;20040;-86
2023/10/06 03:27:53;;;;;;;23.80;11.25;;;11.30;99.90;;;11.28;100.00;101176.81;4927562;29;20044;-87
2023/10/06 03:30:33;;;;;;;19.80;10.52;;;11.40;99.90;;;11.27;100.00;101192.34;4938402;29;20445;-83
2023/10/06 03:33:03;;;;;;;24.27;11.65;;;11.30;99.90;;;11.17;100.00;101191.94;4927446;29;20054;-84
2023/10/06 03:35:37;;;;;;;23.52;11.73;;;11.20;99.90;;;11.20;100.00;101194.25;4915880;29;20047;-84
2023/10/06 03:41:04;;;;;;;20.95;10.73;;;11.20;99.90;;;11.07;100.00;101187.69;4918455;29;20066;-84
2023/10/06 03:43:33;;;;;;;19.02;10.77;;;11.10;99.90;;;11.06;100.00;101186.00;4929865;29;20044;-85
2023/10/06 03:46:00;;;;;;;24.98;10.00;;;11.10;99.90;;;11.03;100.00;101182.88;4925113;29;20091;-83
2023/10/06 03:48:29;;;;;;;24.95;10.57;;;11.00;99.90;;;10.98;100.00;101182.63;4932639;29;20035;-85
2023/10/06 03:50:56;;;;;;;20.80;10.68;;;11.00;99.90;;;10.95;100.00;101175.72;4932555;29;20032;-84
2023/10/06 03:53:24;;;;;;;23.92;10.30;;;11.00;99.90;;;10.96;100.00;101173.81;4934382;29;20063;-85
2023/10/06 03:55:50;;;;;;;19.27;9.98;;;11.00;99.90;;;10.94;100.00;101160.38;4926774;29;20047;-84
2023/10/06 03:58:18;;;;;;;24.15;10.07;;;11.00;99.90;;;10.89;100.00;101139.16;4925877;29;20048;-84
2023/10/06 04:00:47;;;;;;;23.00;9.48;;;11.00;99.90;;;10.92;100.00;101146.91;4919130;29;20040;-83
2023/10/06 04:03:17;;;;;;;18.98;9.82;;;11.00;99.90;;;10.92;100.00;101144.19;4918900;29;20511;-85
2023/10/06 04:05:52;;;;;;;24.67;9.27;;;11.00;99.90;;;10.95;100.00;101134.75;4919459;29;20139;-85
2023/10/06 04:08:23;;;;;;;19.65;9.63;;;11.00;99.90;;;10.97;100.00;101129.94;4939661;29;20091;-85
2023/10/06 04:10:54;;;;;;;17.45;9.20;;;11.10;99.90;;;11.05;100.00;101140.66;4920008;29;20422;-84
2023/10/06 04:13:20;;;;;;;14.60;8.75;;;11.10;99.90;;;11.06;100.00;101128.66;4919019;29;20106;-84
2023/10/06 04:15:50;;;;;;;21.15;9.80;;;11.20;99.90;;;11.12;100.00;101134.34;4930502;29;20055;-86
2023/10/06 04:18:23;;;;;;;20.83;9.43;;;11.20;99.90;;;11.17;100.00;101143.59;4932176;29;20041;-84
2023/10/06 04:20:52;;;;;;;21.23;9.27;;;11.30;99.90;;;11.26;100.00;101146.97;4927556;29;20078;-84
2023/10/06 04:23:22;;;;;;;17.63;9.13;;;11.30;99.90;;;11.32;100.00;101151.59;4920919;29;20044;-85
2023/10/06 04:25:54;;;;;;;18.83;8.80;;;11.40;99.90;;;11.33;100.00;101166.09;4924449;29;20560;-86
2023/10/06 04:28:25;;;;;;;13.77;8.35;;;11.40;99.90;;;11.53;100.00;101187.97;4931544;29;20031;-86
2023/10/06 04:30:51;;;;;;;19.23;7.75;;;11.40;99.90;;;11.59;100.00;101211.72;4934382;29;20094;-86
2023/10/06 04:33:19;;;;;;;14.35;7.22;;;11.50;99.90;;;11.63;100.00;101223.91;4927313;29;20040;-86
2023/10/06 04:35:56;;;;;;;12.48;6.88;;;11.60;99.90;;;11.69;100.00;101249.56;4945161;29;20106;-85
2023/10/06 04:38:23;;;;;;;13.40;6.57;;;11.70;99.90;;;11.74;100.00;101273.53;4932564;29;20038;-93
2023/10/06 04:40:49;;;;;;;15.25;6.65;;;11.70;99.90;;;11.75;100.00;101280.69;4924065;29;20088;-86
2023/10/06 04:43:17;;;;;;;12.05;6.70;;;11.70;99.90;;;11.76;100.00;101301.50;4930932;29;20040;-86
2023/10/06 04:45:44;;;;;;;18.30;5.97;;;11.70;99.90;;;11.83;100.00;101306.97;4925365;29;20040;-87
2023/10/06 04:48:12;;;;;;;12.63;5.90;;;11.80;99.90;;;11.78;100.00;101324.00;4918302;29;20032;-88
2023/10/06 04:50:38;;;;;;;11.63;5.72;;;11.80;99.90;;;11.72;100.00;101325.66;4923033;29;20131;-90
2023/10/06 04:53:07;;;;;;;15.35;5.35;;;11.80;99.90;;;11.70;100.00;101325.03;4940926;29;20070;-87
2023/10/06 04:55:38;;;;;;;13.18;5.40;;;11.80;99.90;;;11.61;100.00;101318.91;4962401;28;20047;-87
2023/10/06 04:58:15;;;;;;;18.40;5.47;;;11.70;99.90;;;11.64;100.00;101313.03;4955344;29;20103;-88
2023/10/06 05:00:42;;;;;;;15.15;5.50;;;11.70;99.90;;;11.61;100.00;101307.16;4933391;29;20507;-89
2023/10/06 05:03:10;;;;;;;15.30;5.43;;;11.70;99.90;;;11.59;100.00;101303.78;4920964;29;20059;-88
2023/10/06 05:05:42;;;;;;;12.48;5.43;;;11.70;99.90;;;11.51;100.00;101297.44;4919479;29;20044;-89
2023/10/06 05:08:09;;;;;;;11.52;5.28;;;11.70;99.90;;;11.53;100.00;101308.19;4926919;29;20044;-84
2023/10/06 05:10:37;;;;;;;14.18;5.65;;;11.70;99.90;;;11.48;100.00;101292.41;4918204;29;20040;-86
2023/10/06 05:13:06;;;;;;;11.10;4.97;;;11.60;99.90;;;11.42;100.00;101276.84;4921181;29;20054;-83
2023/10/06 05:15:34;;;;;;;10.80;5.15;;;11.60;99.90;;;11.35;100.00;101265.06;4911143;29;20684;-86
2023/10/06 05:18:03;;;;;;;10.20;4.93;;;11.50;99.90;;;11.33;100.00;101251.59;4921951;29;20106;-83
2023/10/06 05:20:35;;;;;;;12.85;5.47;;;11.50;99.90;;;11.41;100.00;101252.47;4911729;29;20135;-85
2023/10/06 05:23:07;;;;;;;11.32;5.40;;;11.50;99.90;;;11.36;100.00;101255.81;4929580;29;20043;-83
2023/10/06 05:25:44;;;;;;;15.75;5.25;;;11.50;99.90;;;11.44;100.00;101247.44;4920105;29;20044;-83
2023/10/06 05:28:10;;;;;;;12.00;4.97;;;11.60;99.90;;;11.44;100.00;101255.63;4920411;29;20044;-85
2023/10/06 05:30:38;;;;;;;12.65;4.90;;;11.60;99.90;;;11.50;100.00;101284.84;4927255;29;20043;-85
2023/10/06 05:33:04;;;;;;;12.40;4.82;;;11.60;99.90;;;11.57;100.00;101295.78;4933792;29;20054;-89
2023/10/06 05:35:38;;;;;;;14.10;5.47;;;11.60;99.90;;;11.57;100.00;101303.16;4931946;29;20056;-83
2023/10/06 05:38:13;;;;;;;12.05;4.88;;;11.60;99.90;;;11.63;100.00;101316.81;4920783;29;20040;-86
2023/10/06 05:40:40;;;;;;;13.85;4.85;;;11.60;99.90;;;11.62;100.00;101311.56;4922688;29;20039;-85
2023/10/06 05:43:11;;;;;;;14.85;5.47;;;11.70;99.90;;;11.64;100.00;101307.56;4923020;29;20115;-84
2023/10/06 05:45:43;;;;;;;12.00;4.72;;;11.70;99.90;;;11.74;100.00;101306.34;4918769;29;20118;-84
2023/10/06 05:48:13;;;;;;;12.25;4.93;;;11.80;99.90;;;11.75;100.00;101310.75;4903049;29;20032;-84
2023/10/06 05:50:43;;;;;;;13.07;5.05;;;11.80;99.90;;;11.85;100.00;101334.94;4931475;29;20040;-85
2023/10/06 05:53:12;;;;;;;10.57;4.45;;;11.90;99.90;;;11.79;100.00;101347.56;4926899;29;20039;-83
2023/10/06 05:55:42;;;;;;;12.13;4.82;;;11.90;99.90;;;11.92;100.00;101350.28;4926798;29;20492;-84
2023/10/06 05:58:14;;;;;;;9.55;4.55;;;11.90;99.90;;;11.96;100.00;101358.09;4925255;29;20443;-84
2023/10/06 06:00:50;;;;;;;11.30;5.00;;;12.10;99.90;;;12.03;100.00;101368.00;4929890;29;20043;-85
2023/10/06 06:03:21;;;;;;;11.77;4.07;;;12.10;99.90;;;12.10;100.00;101362.53;4930478;29;20028;-85
2023/10/06 06:05:48;;;;;;;9.90;4.32;;;12.10;99.90;;;12.18;100.00;101353.28;4930707;29;20048;-85
2023/10/06 06:08:14;;;;;;;9.10;4.40;;;12.20;99.90;;;12.13;100.00;101340.25;4927635;29;20488;-85
2023/10/06 06:10:41;;;;;;;16.08;4.35;;;12.20;99.90;;;12.15;100.00;101342.78;4926339;29;20059;-84
2023/10/06 06:13:07;;;;;;;11.43;3.97;;;12.30;99.90;;;12.19;100.00;101350.34;4928561;29;20040;-85
2023/10/06 06:15:35;;;;;;;8.23;3.90;;;12.40;99.90;;;12.32;100.00;101374.09;4922452;29;20131;-86
2023/10/06 06:18:01;;;;;;;11.65;4.10;;;12.40;99.90;;;12.41;100.00;101388.44;4927600;29;20036;-84
2023/10/06 06:20:28;;;;;;;10.23;4.00;;;12.50;99.90;;;12.49;100.00;101415.59;4917208;29;20317;-84
2023/10/06 06:23:02;;;;;;;10.93;4.18;;;12.60;99.90;;;12.52;100.00;101406.09;4923510;29;20468;-83
2023/10/06 06:25:29;;;;;;;11.00;3.72;;;12.70;99.90;;;12.61;100.00;101401.25;4926272;29;20419;-79
2023/10/06 06:27:59;;;;;;;11.18;3.55;;;12.70;99.90;;;12.58;100.00;101398.94;4925159;29;20035;-83
2023/10/06 06:30:26;;;;;;;10.27;3.90;;;12.80;99.90;;;12.68;100.00;101414.94;4927982;29;20134;-83
2023/10/06 06:32:54;;;;;;;10.07;4.25;;;12.90;99.90;;;12.71;100.00;101415.34;4930153;29;20089;-85
2023/10/06 06:35:21;;;;;;;6.70;3.53;;;12.90;99.90;;;12.75;100.00;101434.94;4906401;29;20040;-82
2023/10/06 06:37:59;;;;;;;10.50;4.25;;;12.90;99.90;;;12.77;100.00;101428.22;4941316;29;20485;-85
2023/10/06 06:40:30;;;;;;;12.35;3.78;;;12.90;99.90;;;12.82;100.00;101429.47;4920396;29;20055;-79
2023/10/06 06:42:59;;;;;;;10.77;4.10;;;13.00;99.90;;;12.89;100.00;101446.72;4922566;29;20492;-83
2023/10/06 06:45:25;;;;;;;7.80;3.80;;;13.10;99.90;;;12.92;100.00;101429.84;4924565;29;20040;-82
2023/10/06 06:47:52;;;;;;;9.13;3.53;;;13.10;99.90;;;12.91;100.00;101419.97;4929451;29;20051;-82
2023/10/06 06:50:20;;;;;;;;;;;13.10;99.90;;;12.94;100.00;101428.59;4926414;29;20039;-82
2023/10/06 06:52:48;;;;;;;10.13;3.78;;;13.20;99.90;;;13.05;100.00;101438.06;4921499;29;20339;-83
2023/10/06 06:55:14;;;;;;;10.35;3.38;;;13.20;99.90;;;12.97;100.00;101429.22;4926263;29;20036;-81
2023/10/06 06:57:46;;;;;;;9.07;3.50;;;13.20;99.90;;;12.99;100.00;101438.91;4932882;29;20420;-81
2023/10/06 07:00:24;;;;;;;9.25;3.42;;;13.20;99.90;;;12.89;100.00;101439.34;4927128;29;20041;-83
2023/10/06 07:02:52;;;;;;;9.25;3.72;;;13.10;99.90;;;12.91;100.00;101431.78;4914196;29;20027;-81
2023/10/06 07:05:22;;;;;;;11.00;4.00;;;13.00;99.90;;;12.87;100.00;101429.66;4924742;29;20028;-81
2023/10/06 07:07:53;;;;;;;14.57;4.13;;;13.00;99.90;;;12.89;100.00;101438.50;4920331;29;20058;-83
2023/10/06 07:10:22;;;;;;;9.10;3.80;;;13.00;99.90;;;12.83;100.00;101421.03;4926569;29;20399;-82
2023/10/06 07:12:51;;;;;;;11.63;4.10;;;13.00;99.90;;;12.83;100.00;101407.31;4932154;29;20472;-83
2023/10/06 07:15:19;;;;;;;12.48;4.50;;;13.00;99.90;;;12.96;100.00;101403.72;4917157;29;20040;-83
2023/10/06 07:17:51;;;;;;;10.07;4.45;;;13.10;99.90;;;13.03;100.00;101399.09;4916509;29;20048;-85
2023/10/06 07:20:27;;;;;;;10.23;4.53;;;13.20;99.90;;;13.26;100.00;101408.72;4911559;29;20036;-86
2023/10/06 07:23:00;;;;;;;9.80;4.40;;;13.30;99.90;;;13.37;100.00;101410.78;4928535;29;20036;-84
2023/10/06 07:25:27;;;;;;;8.88;4.72;;;13.40;99.90;;;13.43;100.00;101422.81;4925206;29;20045;-85
2023/10/06 07:27:57;;;;;;;11.65;4.70;;;13.50;99.90;;;13.42;100.00;101412.88;4933181;29;20043;-83
2023/10/06 07:30:26;;;;;;;11.20;4.68;;;13.60;99.90;;;13.47;100.00;101415.81;4920994;29;20055;-84
2023/10/06 07:32:54;;;;;;;13.10;4.70;;;13.70;99.90;;;13.50;100.00;101400.81;4929066;29;20032;-83
2023/10/06 07:35:31;;;;;;;10.75;4.38;;;13.80;99.90;;;13.74;100.00;101428.53;4924753;29;20078;-82
2023/10/06 07:37:57;;;;;;;8.90;4.38;;;13.90;99.90;;;13.95;100.00;101430.97;4930407;29;20047;-85
2023/10/06 07:40:27;;;;;;;11.75;4.13;;;14.00;99.90;;;14.05;100.00;101433.22;4929262;29;20050;-84
2023/10/06 07:42:55;;;;;;;10.35;3.80;;;14.20;99.90;;;14.12;100.00;101444.16;4926013;29;20047;-84
2023/10/06 07:45:21;;;;;;;11.20;4.00;;;14.20;99.90;;;14.29;100.00;101429.88;4935188;29;20064;-82
2023/10/06 07:47:47;;;;;;;11.07;3.85;;;14.40;99.90;;;14.39;100.00;101433.00;4926690;29;20040;-87
2023/10/06 07:50:15;;;;;;;8.20;3.75;;;14.50;99.90;;;14.53;100.00;101429.06;4916470;29;20064;-82
2023/10/06 07:52:42;;;;;;;8.63;3.13;;;14.70;99.90;;;14.57;100.00;101432.22;4925876;29;20055;-84
2023/10/06 07:55:10;;;;;;;7.93;3.20;;;14.80;99.90;;;14.75;100.00;101436.94;4916401;29;20054;-86
2023/10/06 07:57:46;;;;;;;8.23;2.90;;;14.90;99.90;;;14.58;100.00;101438.53;4928590;29;20042;-86
2023/10/06 08:00:18;;;;;;;11.18;3.35;;;14.90;99.90;;;14.65;100.00;101431.91;4937624;29;20502;-86
2023/10/06 08:02:47;;;;;;;7.13;2.65;;;14.90;99.90;;;14.71;100.00;101432.97;4936839;29;20047;-84
2023/10/06 08:05:17;;;;;;;9.45;2.75;;;14.90;99.90;;;15.01;100.00;101439.66;4925299;29;20480;-84
2023/10/06 08:07:43;;;;;;;9.45;3.10;;;15.10;99.90;;;15.15;100.00;101454.09;4923742;29;20048;-85
2023/10/06 08:10:14;;;;;;;5.47;2.80;;;15.30;99.90;;;15.49;100.00;101452.63;4929968;29;20121;-85
2023/10/06 08:12:45;;;;;;;7.65;2.90;;;15.50;99.90;;;15.86;100.00;101451.72;4922019;29;20043;-83
2023/10/06 08:15:16;;;;;;;7.53;2.90;;;15.90;99.90;;;15.86;100.00;101454.47;4927788;29;20044;-85
2023/10/06 08:17:45;;;;;;;10.20;2.80;;;16.10;99.90;;;16.23;100.00;101456.31;4926300;29;20140;-84
2023/10/06 08:20:12;;;;;;;7.10;3.20;;;16.20;99.90;;;16.24;100.00;101455.25;4926428;29;20497;-86
2023/10/06 08:22:39;;;;;;;12.43;3.05;;;16.30;99.90;;;15.95;100.00;101452.28;4930267;29;20060;-84
2023/10/06 08:25:09;;;;;;;9.35;2.50;;;16.20;99.90;;;16.07;100.00;101446.81;4929996;29;20044;-85
2023/10/06 08:27:39;;;;;;;11.48;2.80;;;16.20;99.90;;;15.87;100.00;101439.66;4931959;29;20031;-89
2023/10/06 08:30:21;;;;;;;10.68;2.83;;;16.10;99.90;;;15.71;100.00;101457.66;4918071;29;20098;-85
2023/10/06 08:32:53;;;;;;;8.57;2.60;;;16.00;99.90;;;15.87;100.00;101442.41;4923456;29;20046;-85
2023/10/06 08:35:20;;;;;;;11.10;3.10;;;16.00;99.90;;;15.92;100.00;101437.09;4929590;29;20448;-83
2023/10/06 08:37:48;;;;;;;8.17;2.40;;;16.10;99.90;;;16.02;100.00;101436.50;4934749;29;20400;-84
2023/10/06 08:40:16;;;;;;;8.13;2.78;;;16.10;99.90;;;16.25;100.00;101454.16;4930401;29;20798;-85
2023/10/06 08:43:06;;;;;;;8.75;2.75;;;16.20;99.90;;;16.34;100.00;101435.41;4909613;29;20032;-89
2023/10/06 08:45:37;;;;;;;7.45;2.70;;;16.40;99.90;;;16.67;100.00;101445.88;4912940;29;20484;-87
2023/10/06 08:48:09;;;;;;;7.97;2.65;;;16.60;99.90;;;16.86;100.00;101443.00;4930912;29;20039;-89
2023/10/06 08:50:37;;;;;;;7.18;2.40;;;16.70;99.90;;;16.99;100.00;101430.94;4930106;29;20050;-85
2023/10/06 08:53:09;;;;;;;8.23;2.15;;;16.90;99.90;;;17.16;100.00;101432.94;4931483;29;20027;-82
2023/10/06 08:55:40;;;;;;;10.38;2.70;;;17.10;99.90;;;16.79;100.00;101415.56;4931029;29;20039;-84
2023/10/06 08:58:13;;;;;;;6.95;2.15;;;17.00;99.90;;;17.32;100.00;101420.31;4928710;29;20102;-82
2023/10/06 09:00:43;;;;;;;8.45;2.55;;;17.30;99.90;;;17.48;100.00;101424.22;4930705;29;20617;-83
2023/10/06 09:03:14;;;;;;;9.50;2.65;;;17.60;99.90;;;17.49;100.00;101431.41;4923012;29;20032;-82
2023/10/06 09:05:41;;;;;;;6.80;2.30;;;17.80;99.90;;;17.54;100.00;101435.13;4925180;29;20037;-81
2023/10/06 09:08:14;;;;;;;7.88;2.20;;;17.70;99.90;;;17.55;100.00;101435.97;4917410;29;20054;-82
2023/10/06 09:10:52;;;;;;;10.45;2.78;;;17.80;99.90;;;17.44;100.00;101423.88;4920899;29;20399;-81
2023/10/06 09:13:21;;;;;;;6.93;2.13;;;17.70;99.90;;;17.66;100.00;101432.31;4911655;29;20039;-83
2023/10/06 09:16:08;;;;;;;6.55;2.00;;;17.80;99.90;;;17.67;100.00;101425.72;4929034;29;20326;-81
2023/10/06 09:18:35;;;;;;;8.20;2.25;;;17.80;99.90;;;17.76;100.00;101450.16;4928934;29;20036;-83
2023/10/06 09:21:19;;;;;;;7.82;2.30;;;17.90;99.90;;;17.67;100.00;101445.03;4926211;29;20071;-81
2023/10/06 09:23:46;;;;;;;7.03;2.50;;;17.80;99.90;;;17.24;100.00;101440.84;4927345;29;20083;-82
2023/10/06 09:26:24;;;;;;;5.90;2.08;;;17.70;99.90;;;17.64;100.00;101459.31;4912017;29;20059;-81
2023/10/06 09:28:55;;;;;;;6.70;2.10;;;17.80;99.90;;;18.08;100.00;101463.50;4923397;29;20063;-82
2023/10/06 09:31:44;;;;;;;8.93;2.30;;;18.20;99.90;;;18.17;100.00;101459.25;4929751;29;20076;-83
2023/10/06 09:34:11;;;;;;;8.73;2.37;;;18.40;99.90;;;18.38;100.00;101460.44;4949593;28;20051;-80
2023/10/06 09:36:42;;;;;;;7.13;1.85;;;18.50;99.90;;;17.79;100.00;101444.16;4928869;29;20035;-80
2023/10/06 09:39:14;;;;;;;7.45;2.30;;;18.20;99.90;;;17.50;100.00;101425.66;4927539;29;20115;-82
2023/10/06 09:41:40;;;;;;;7.53;2.50;;;17.90;99.90;;;17.63;100.00;101431.97;4927828;29;20775;-80
2023/10/06 09:44:09;;;;;;;6.70;2.17;;;17.90;99.90;;;17.89;100.00;101440.75;4931673;29;20050;-82
2023/10/06 09:46:35;;;;;;;7.15;2.40;;;17.90;99.90;;;17.94;100.00;101438.94;4927607;29;20032;-83
2023/10/06 09:49:05;;;;;;;6.45;2.33;;;18.00;99.90;;;18.32;100.00;101435.78;4925343;29;20040;-82
2023/10/06 09:51:36;;;;;;;5.38;2.10;;;18.30;99.90;;;17.96;100.00;101419.38;4928161;29;20028;-80
2023/10/06 09:54:05;;;;;;;5.50;2.08;;;18.20;99.90;;;17.96;100.00;101416.59;4927167;29;20083;-80
2023/10/06 09:56:32;;;;;;;6.65;2.78;;;18.10;99.90;;;17.93;100.00;101415.16;4927910;29;20040;-87
2023/10/06 09:58:59;;;;;;;5.32;2.20;;;18.10;99.90;;;17.96;100.00;101413.84;4927082;29;20036;-83
2023/10/06 10:01:28;;;;;;;6.60;2.20;;;18.20;99.90;;;18.05;100.00;101417.09;4935111;29;20048;-83
2023/10/06 10:03:56;;;;;;;5.78;2.15;;;18.20;99.90;;;18.35;100.00;101404.88;4926840;29;20032;-85
2023/10/06 10:06:26;;;;;;;6.40;2.20;;;18.50;99.90;;;18.61;100.00;101413.59;4922386;29;20035;-84
2023/10/06 10:08:52;;;;;;;6.75;2.08;;;18.70;99.90;;;18.71;100.00;101416.50;4923540;29;20040;-84
2023/10/06 10:11:29;;;;;;;6.00;2.08;;;18.80;99.90;;;18.83;100.00;101417.25;4926201;29;20063;-85
2023/10/06 10:14:18;;;;;;;7.65;2.30;;;18.80;99.90;;;19.02;100.00;101403.13;4924123;29;20123;-82
2023/10/06 10:17:02;;;;;;;6.30;2.03;;;19.00;99.90;;;19.18;100.00;101401.41;4928929;29;20039;-83
2023/10/06 10:19:30;;;;;;;6.03;2.20;;;19.20;99.90;;;19.09;100.00;101397.44;4944380;29;20047;-83
2023/10/06 10:21:58;;;;;;;;;;;;;;;19.81;100.00;101402.97;4932561;29;20122;-86